sensor_id;sensor_type;location;lat;lon;timestamp;P1;durP1;ratioP1;P2;durP2;ratioP2
5549;SDS011;2798;42.716;23.256;2023-04-25T00:00:16;1.63;;;1.50;;
5549;SDS011;2798;42.716;23.256;2023-04-25T00:02:42;1.33;;;1.23;;
5549;SDS011;2798;42.716;23.256;2023-04-25T00:05:07;2.77;;;1.80;;
5549;SDS011;2798;42.716;23.256;2023-04-25T00:07:33;2.47;;;1.40;;
5549;SDS011;2798;42.716;23.256;2023-04-25T00:09:58;1.50;;;1.40;;
5549;SDS011;2798;42.716;23.256;2023-04-25T00:12:24;4.07;;;1.57;;
5549;SDS011;2798;42.716;23.256;2023-04-25T00:14:49;1.90;;;1.60;;
5549;SDS011;2798;42.716;23.256;2023-04-25T00:17:17;3.33;;;1.60;;
5549;SDS011;2798;42.716;23.256;2023-04-25T00:19:44;3.67;;;1.87;;
5549;SDS011;2798;42.716;23.256;2023-04-25T00:22:11;2.00;;;1.73;;
5549;SDS011;2798;42.716;23.256;2023-04-25T00:24:36;2.40;;;1.93;;
5549;SDS011;2798;42.716;23.256;2023-04-25T00:27:02;2.30;;;1.93;;
5549;SDS011;2798;42.716;23.256;2023-04-25T00:29:27;3.40;;;2.13;;
5549;SDS011;2798;42.716;23.256;2023-04-25T00:31:52;2.00;;;1.80;;
5549;SDS011;2798;42.716;23.256;2023-04-25T00:34:18;2.83;;;2.27;;
5549;SDS011;2798;42.716;23.256;2023-04-25T00:36:43;2.17;;;1.80;;
5549;SDS011;2798;42.716;23.256;2023-04-25T00:39:08;2.57;;;2.03;;
5549;SDS011;2798;42.716;23.256;2023-04-25T00:41:33;2.77;;;1.90;;
5549;SDS011;2798;42.716;23.256;2023-04-25T00:43:59;6.07;;;2.17;;
5549;SDS011;2798;42.716;23.256;2023-04-25T00:46:25;1.97;;;1.43;;
5549;SDS011;2798;42.716;23.256;2023-04-25T00:48:50;2.47;;;1.93;;
5549;SDS011;2798;42.716;23.256;2023-04-25T00:51:16;2.17;;;1.80;;
5549;SDS011;2798;42.716;23.256;2023-04-25T00:53:44;3.13;;;1.43;;
5549;SDS011;2798;42.716;23.256;2023-04-25T00:56:09;1.57;;;1.40;;
5549;SDS011;2798;42.716;23.256;2023-04-25T00:58:35;1.17;;;1.07;;
5549;SDS011;2798;42.716;23.256;2023-04-25T01:01:01;1.33;;;1.30;;
5549;SDS011;2798;42.716;23.256;2023-04-25T01:03:27;1.93;;;1.20;;
5549;SDS011;2798;42.716;23.256;2023-04-25T01:05:53;1.10;;;1.00;;
5549;SDS011;2798;42.716;23.256;2023-04-25T01:08:19;2.63;;;0.90;;
5549;SDS011;2798;42.716;23.256;2023-04-25T01:10:46;1.33;;;1.00;;
5549;SDS011;2798;42.716;23.256;2023-04-25T01:13:11;1.23;;;1.13;;
5549;SDS011;2798;42.716;23.256;2023-04-25T01:15:36;1.63;;;1.40;;
5549;SDS011;2798;42.716;23.256;2023-04-25T01:18:02;1.10;;;1.10;;
5549;SDS011;2798;42.716;23.256;2023-04-25T01:20:28;1.63;;;1.20;;
5549;SDS011;2798;42.716;23.256;2023-04-25T01:22:53;1.53;;;1.10;;
5549;SDS011;2798;42.716;23.256;2023-04-25T01:25:20;1.40;;;1.30;;
5549;SDS011;2798;42.716;23.256;2023-04-25T01:27:45;1.63;;;1.40;;
5549;SDS011;2798;42.716;23.256;2023-04-25T01:30:11;1.70;;;1.60;;
5549;SDS011;2798;42.716;23.256;2023-04-25T01:32:37;2.70;;;1.87;;
5549;SDS011;2798;42.716;23.256;2023-04-25T01:35:06;2.80;;;1.93;;
5549;SDS011;2798;42.716;23.256;2023-04-25T01:37:35;2.90;;;2.60;;
5549;SDS011;2798;42.716;23.256;2023-04-25T01:40:01;2.93;;;2.67;;
5549;SDS011;2798;42.716;23.256;2023-04-25T01:42:26;2.40;;;2.20;;
5549;SDS011;2798;42.716;23.256;2023-04-25T01:44:52;3.13;;;2.77;;
5549;SDS011;2798;42.716;23.256;2023-04-25T01:47:17;3.63;;;2.90;;
5549;SDS011;2798;42.716;23.256;2023-04-25T01:49:42;3.30;;;3.00;;
5549;SDS011;2798;42.716;23.256;2023-04-25T01:52:08;3.40;;;2.70;;
5549;SDS011;2798;42.716;23.256;2023-04-25T01:54:33;2.93;;;2.63;;
5549;SDS011;2798;42.716;23.256;2023-04-25T01:56:58;3.20;;;2.90;;
5549;SDS011;2798;42.716;23.256;2023-04-25T01:59:23;3.70;;;3.40;;
5549;SDS011;2798;42.716;23.256;2023-04-25T02:01:49;4.40;;;3.70;;
5549;SDS011;2798;42.716;23.256;2023-04-25T02:04:15;4.40;;;4.00;;
5549;SDS011;2798;42.716;23.256;2023-04-25T02:06:40;6.03;;;4.03;;
5549;SDS011;2798;42.716;23.256;2023-04-25T02:09:05;6.83;;;5.07;;
5549;SDS011;2798;42.716;23.256;2023-04-25T02:11:30;5.70;;;5.20;;
5549;SDS011;2798;42.716;23.256;2023-04-25T02:13:56;6.47;;;5.20;;
5549;SDS011;2798;42.716;23.256;2023-04-25T02:16:21;5.70;;;5.10;;
5549;SDS011;2798;42.716;23.256;2023-04-25T02:18:46;6.87;;;5.23;;
5549;SDS011;2798;42.716;23.256;2023-04-25T02:21:12;6.63;;;6.00;;
5549;SDS011;2798;42.716;23.256;2023-04-25T02:23:37;8.40;;;5.77;;
5549;SDS011;2798;42.716;23.256;2023-04-25T02:26:02;9.80;;;7.67;;
5549;SDS011;2798;42.716;23.256;2023-04-25T02:28:28;11.93;;;9.87;;
5549;SDS011;2798;42.716;23.256;2023-04-25T02:30:53;18.07;;;11.23;;
5549;SDS011;2798;42.716;23.256;2023-04-25T02:33:18;17.10;;;12.57;;
5549;SDS011;2798;42.716;23.256;2023-04-25T02:35:43;18.07;;;12.80;;
5549;SDS011;2798;42.716;23.256;2023-04-25T02:38:09;18.73;;;13.73;;
5549;SDS011;2798;42.716;23.256;2023-04-25T02:40:34;19.87;;;14.67;;
5549;SDS011;2798;42.716;23.256;2023-04-25T02:42:59;19.10;;;14.50;;
5549;SDS011;2798;42.716;23.256;2023-04-25T02:45:24;20.70;;;14.60;;
5549;SDS011;2798;42.716;23.256;2023-04-25T02:47:50;18.07;;;15.17;;
5549;SDS011;2798;42.716;23.256;2023-04-25T02:50:15;17.73;;;13.70;;
5549;SDS011;2798;42.716;23.256;2023-04-25T02:52:40;19.93;;;13.17;;
5549;SDS011;2798;42.716;23.256;2023-04-25T02:55:05;14.90;;;12.20;;
5549;SDS011;2798;42.716;23.256;2023-04-25T02:57:31;16.37;;;11.10;;
5549;SDS011;2798;42.716;23.256;2023-04-25T02:59:56;13.10;;;10.23;;
5549;SDS011;2798;42.716;23.256;2023-04-25T03:02:22;12.60;;;9.17;;
5549;SDS011;2798;42.716;23.256;2023-04-25T03:04:47;9.20;;;8.20;;
5549;SDS011;2798;42.716;23.256;2023-04-25T03:07:12;9.47;;;7.60;;
5549;SDS011;2798;42.716;23.256;2023-04-25T03:09:38;8.97;;;7.43;;
5549;SDS011;2798;42.716;23.256;2023-04-25T03:12:03;9.40;;;7.20;;
5549;SDS011;2798;42.716;23.256;2023-04-25T03:14:28;7.90;;;6.40;;
5549;SDS011;2798;42.716;23.256;2023-04-25T03:16:54;8.17;;;6.83;;
5549;SDS011;2798;42.716;23.256;2023-04-25T03:19:19;9.47;;;6.97;;
5549;SDS011;2798;42.716;23.256;2023-04-25T03:21:45;7.00;;;6.13;;
5549;SDS011;2798;42.716;23.256;2023-04-25T03:24:10;10.40;;;6.30;;
5549;SDS011;2798;42.716;23.256;2023-04-25T03:26:38;9.60;;;6.80;;
5549;SDS011;2798;42.716;23.256;2023-04-25T03:29:04;8.43;;;7.17;;
5549;SDS011;2798;42.716;23.256;2023-04-25T03:31:29;7.50;;;6.37;;
5549;SDS011;2798;42.716;23.256;2023-04-25T03:33:55;9.80;;;7.27;;
5549;SDS011;2798;42.716;23.256;2023-04-25T03:36:20;8.43;;;6.70;;
5549;SDS011;2798;42.716;23.256;2023-04-25T03:38:45;7.00;;;6.30;;
5549;SDS011;2798;42.716;23.256;2023-04-25T03:41:11;10.17;;;6.90;;
5549;SDS011;2798;42.716;23.256;2023-04-25T03:43:36;9.07;;;7.20;;
5549;SDS011;2798;42.716;23.256;2023-04-25T03:46:01;7.03;;;6.10;;
5549;SDS011;2798;42.716;23.256;2023-04-25T03:48:27;6.60;;;5.93;;
5549;SDS011;2798;42.716;23.256;2023-04-25T03:50:53;7.47;;;6.43;;
5549;SDS011;2798;42.716;23.256;2023-04-25T03:53:18;8.53;;;6.70;;
5549;SDS011;2798;42.716;23.256;2023-04-25T03:55:43;6.90;;;6.20;;
5549;SDS011;2798;42.716;23.256;2023-04-25T03:58:08;7.83;;;6.77;;
5549;SDS011;2798;42.716;23.256;2023-04-25T04:00:34;8.50;;;6.73;;
5549;SDS011;2798;42.716;23.256;2023-04-25T04:02:59;8.23;;;6.63;;
5549;SDS011;2798;42.716;23.256;2023-04-25T04:05:24;8.10;;;6.60;;
5549;SDS011;2798;42.716;23.256;2023-04-25T04:07:50;7.60;;;6.70;;
5549;SDS011;2798;42.716;23.256;2023-04-25T04:10:15;8.90;;;7.23;;
5549;SDS011;2798;42.716;23.256;2023-04-25T04:12:40;8.97;;;6.73;;
5549;SDS011;2798;42.716;23.256;2023-04-25T04:15:06;7.40;;;6.13;;
5549;SDS011;2798;42.716;23.256;2023-04-25T04:17:31;8.87;;;6.10;;
5549;SDS011;2798;42.716;23.256;2023-04-25T04:19:57;9.90;;;5.40;;
5549;SDS011;2798;42.716;23.256;2023-04-25T04:22:22;7.30;;;6.40;;
5549;SDS011;2798;42.716;23.256;2023-04-25T04:24:48;6.37;;;5.20;;
5549;SDS011;2798;42.716;23.256;2023-04-25T04:27:14;6.60;;;5.63;;
5549;SDS011;2798;42.716;23.256;2023-04-25T04:29:40;8.30;;;5.50;;
5549;SDS011;2798;42.716;23.256;2023-04-25T04:32:05;7.20;;;6.33;;
5549;SDS011;2798;42.716;23.256;2023-04-25T04:34:30;7.00;;;5.10;;
5549;SDS011;2798;42.716;23.256;2023-04-25T04:36:56;5.70;;;5.10;;
5549;SDS011;2798;42.716;23.256;2023-04-25T04:39:21;5.40;;;4.73;;
5549;SDS011;2798;42.716;23.256;2023-04-25T04:41:47;5.50;;;4.97;;
5549;SDS011;2798;42.716;23.256;2023-04-25T04:44:12;6.60;;;5.10;;
5549;SDS011;2798;42.716;23.256;2023-04-25T04:46:39;5.37;;;4.87;;
5549;SDS011;2798;42.716;23.256;2023-04-25T04:49:07;6.10;;;5.50;;
5549;SDS011;2798;42.716;23.256;2023-04-25T04:51:32;5.90;;;5.30;;
5549;SDS011;2798;42.716;23.256;2023-04-25T04:53:58;6.80;;;5.17;;
5549;SDS011;2798;42.716;23.256;2023-04-25T04:56:27;6.13;;;5.30;;
5549;SDS011;2798;42.716;23.256;2023-04-25T04:58:53;6.27;;;5.00;;
5549;SDS011;2798;42.716;23.256;2023-04-25T05:01:18;4.97;;;4.40;;
5549;SDS011;2798;42.716;23.256;2023-04-25T05:03:43;4.60;;;4.20;;
5549;SDS011;2798;42.716;23.256;2023-04-25T05:06:09;5.70;;;4.43;;
5549;SDS011;2798;42.716;23.256;2023-04-25T05:08:34;4.30;;;3.90;;
5549;SDS011;2798;42.716;23.256;2023-04-25T05:10:59;5.00;;;4.33;;
5549;SDS011;2798;42.716;23.256;2023-04-25T05:13:24;9.00;;;4.60;;
5549;SDS011;2798;42.716;23.256;2023-04-25T05:15:50;5.43;;;4.17;;
5549;SDS011;2798;42.716;23.256;2023-04-25T05:18:15;5.03;;;4.23;;
5549;SDS011;2798;42.716;23.256;2023-04-25T05:20:40;4.63;;;4.17;;
5549;SDS011;2798;42.716;23.256;2023-04-25T05:23:05;6.50;;;4.27;;
5549;SDS011;2798;42.716;23.256;2023-04-25T05:25:31;4.60;;;3.70;;
5549;SDS011;2798;42.716;23.256;2023-04-25T05:27:56;5.77;;;5.10;;
5549;SDS011;2798;42.716;23.256;2023-04-25T05:30:21;5.73;;;4.97;;
5549;SDS011;2798;42.716;23.256;2023-04-25T05:32:47;5.70;;;3.70;;
5549;SDS011;2798;42.716;23.256;2023-04-25T05:35:12;4.37;;;3.90;;
5549;SDS011;2798;42.716;23.256;2023-04-25T05:37:37;5.70;;;4.70;;
5549;SDS011;2798;42.716;23.256;2023-04-25T05:40:03;4.50;;;4.10;;
5549;SDS011;2798;42.716;23.256;2023-04-25T05:42:31;5.20;;;4.33;;
5549;SDS011;2798;42.716;23.256;2023-04-25T05:44:57;8.33;;;4.47;;
5549;SDS011;2798;42.716;23.256;2023-04-25T05:47:22;6.60;;;3.77;;
5549;SDS011;2798;42.716;23.256;2023-04-25T05:49:47;6.03;;;4.20;;
5549;SDS011;2798;42.716;23.256;2023-04-25T05:52:12;5.50;;;3.80;;
5549;SDS011;2798;42.716;23.256;2023-04-25T05:54:38;5.67;;;3.63;;
5549;SDS011;2798;42.716;23.256;2023-04-25T05:57:03;5.80;;;3.40;;
5549;SDS011;2798;42.716;23.256;2023-04-25T05:59:28;4.23;;;3.47;;
5549;SDS011;2798;42.716;23.256;2023-04-25T06:01:53;4.13;;;3.70;;
5549;SDS011;2798;42.716;23.256;2023-04-25T06:04:19;5.07;;;4.00;;
5549;SDS011;2798;42.716;23.256;2023-04-25T06:06:45;5.93;;;3.97;;
5549;SDS011;2798;42.716;23.256;2023-04-25T06:09:10;4.80;;;4.27;;
5549;SDS011;2798;42.716;23.256;2023-04-25T06:11:35;5.00;;;4.50;;
5549;SDS011;2798;42.716;23.256;2023-04-25T06:14:00;6.20;;;4.00;;
5549;SDS011;2798;42.716;23.256;2023-04-25T06:16:26;5.80;;;3.77;;
5549;SDS011;2798;42.716;23.256;2023-04-25T06:18:51;7.27;;;4.33;;
5549;SDS011;2798;42.716;23.256;2023-04-25T06:21:17;4.83;;;4.03;;
5549;SDS011;2798;42.716;23.256;2023-04-25T06:23:42;6.53;;;3.80;;
5549;SDS011;2798;42.716;23.256;2023-04-25T06:26:07;4.47;;;3.17;;
5549;SDS011;2798;42.716;23.256;2023-04-25T06:28:32;5.67;;;3.70;;
5549;SDS011;2798;42.716;23.256;2023-04-25T06:30:57;5.13;;;3.30;;
5549;SDS011;2798;42.716;23.256;2023-04-25T06:33:23;4.77;;;3.70;;
5549;SDS011;2798;42.716;23.256;2023-04-25T06:35:49;6.23;;;4.37;;
5549;SDS011;2798;42.716;23.256;2023-04-25T06:38:15;4.67;;;3.77;;
5549;SDS011;2798;42.716;23.256;2023-04-25T06:40:40;4.17;;;3.77;;
5549;SDS011;2798;42.716;23.256;2023-04-25T06:43:05;6.07;;;3.40;;
5549;SDS011;2798;42.716;23.256;2023-04-25T06:45:30;5.50;;;3.97;;
5549;SDS011;2798;42.716;23.256;2023-04-25T06:47:56;5.50;;;4.20;;
5549;SDS011;2798;42.716;23.256;2023-04-25T06:50:21;8.53;;;3.90;;
5549;SDS011;2798;42.716;23.256;2023-04-25T06:52:46;5.17;;;4.03;;
5549;SDS011;2798;42.716;23.256;2023-04-25T06:55:11;4.60;;;3.40;;
5549;SDS011;2798;42.716;23.256;2023-04-25T06:57:37;6.97;;;5.07;;
5549;SDS011;2798;42.716;23.256;2023-04-25T07:00:02;8.00;;;4.50;;
5549;SDS011;2798;42.716;23.256;2023-04-25T07:02:30;7.20;;;5.27;;
5549;SDS011;2798;42.716;23.256;2023-04-25T07:04:55;6.87;;;4.97;;
5549;SDS011;2798;42.716;23.256;2023-04-25T07:07:24;7.07;;;5.80;;
5549;SDS011;2798;42.716;23.256;2023-04-25T07:09:49;7.80;;;4.87;;
5549;SDS011;2798;42.716;23.256;2023-04-25T07:12:15;9.20;;;5.83;;
5549;SDS011;2798;42.716;23.256;2023-04-25T07:14:40;8.80;;;6.23;;
5549;SDS011;2798;42.716;23.256;2023-04-25T07:17:05;7.63;;;6.07;;
5549;SDS011;2798;42.716;23.256;2023-04-25T07:19:31;7.40;;;5.57;;
5549;SDS011;2798;42.716;23.256;2023-04-25T07:21:57;6.47;;;5.80;;
5549;SDS011;2798;42.716;23.256;2023-04-25T07:24:23;7.93;;;6.17;;
5549;SDS011;2798;42.716;23.256;2023-04-25T07:26:48;7.80;;;6.97;;
5549;SDS011;2798;42.716;23.256;2023-04-25T07:29:13;11.13;;;6.20;;
5549;SDS011;2798;42.716;23.256;2023-04-25T07:31:38;7.10;;;6.33;;
5549;SDS011;2798;42.716;23.256;2023-04-25T07:34:04;8.43;;;6.53;;
5549;SDS011;2798;42.716;23.256;2023-04-25T07:36:30;8.47;;;6.03;;
5549;SDS011;2798;42.716;23.256;2023-04-25T07:38:55;8.23;;;6.17;;
5549;SDS011;2798;42.716;23.256;2023-04-25T07:41:21;7.93;;;6.03;;
5549;SDS011;2798;42.716;23.256;2023-04-25T07:43:46;8.77;;;6.07;;
5549;SDS011;2798;42.716;23.256;2023-04-25T07:46:11;8.20;;;5.80;;
5549;SDS011;2798;42.716;23.256;2023-04-25T07:48:37;8.17;;;6.50;;
5549;SDS011;2798;42.716;23.256;2023-04-25T07:51:02;9.00;;;6.07;;
5549;SDS011;2798;42.716;23.256;2023-04-25T07:53:29;8.87;;;6.10;;
5549;SDS011;2798;42.716;23.256;2023-04-25T07:55:54;7.40;;;5.60;;
5549;SDS011;2798;42.716;23.256;2023-04-25T07:58:20;9.97;;;5.50;;
5549;SDS011;2798;42.716;23.256;2023-04-25T08:00:47;8.83;;;6.30;;
5549;SDS011;2798;42.716;23.256;2023-04-25T08:03:12;11.60;;;6.00;;
5549;SDS011;2798;42.716;23.256;2023-04-25T08:05:39;12.63;;;6.30;;
5549;SDS011;2798;42.716;23.256;2023-04-25T08:08:04;8.73;;;6.27;;
5549;SDS011;2798;42.716;23.256;2023-04-25T08:10:31;8.27;;;5.63;;
5549;SDS011;2798;42.716;23.256;2023-04-25T08:12:57;8.93;;;5.17;;
5549;SDS011;2798;42.716;23.256;2023-04-25T08:15:22;8.40;;;5.97;;
5549;SDS011;2798;42.716;23.256;2023-04-25T08:17:47;5.93;;;4.97;;
5549;SDS011;2798;42.716;23.256;2023-04-25T08:20:12;6.13;;;5.53;;
5549;SDS011;2798;42.716;23.256;2023-04-25T08:22:38;10.20;;;6.00;;
5549;SDS011;2798;42.716;23.256;2023-04-25T08:25:03;12.33;;;5.00;;
5549;SDS011;2798;42.716;23.256;2023-04-25T08:27:28;7.20;;;5.70;;
5549;SDS011;2798;42.716;23.256;2023-04-25T08:29:54;7.37;;;6.30;;
5549;SDS011;2798;42.716;23.256;2023-04-25T08:32:19;7.70;;;5.67;;
5549;SDS011;2798;42.716;23.256;2023-04-25T08:34:46;8.60;;;5.10;;
5549;SDS011;2798;42.716;23.256;2023-04-25T08:37:11;12.13;;;4.90;;
5549;SDS011;2798;42.716;23.256;2023-04-25T08:39:37;5.63;;;3.70;;
5549;SDS011;2798;42.716;23.256;2023-04-25T08:42:03;5.83;;;3.00;;
5549;SDS011;2798;42.716;23.256;2023-04-25T08:44:31;4.60;;;2.77;;
5549;SDS011;2798;42.716;23.256;2023-04-25T08:46:58;4.47;;;3.07;;
5549;SDS011;2798;42.716;23.256;2023-04-25T08:49:23;4.70;;;4.00;;
5549;SDS011;2798;42.716;23.256;2023-04-25T08:51:49;6.60;;;4.67;;
5549;SDS011;2798;42.716;23.256;2023-04-25T08:54:16;4.50;;;3.70;;
5549;SDS011;2798;42.716;23.256;2023-04-25T08:56:45;4.10;;;3.70;;
5549;SDS011;2798;42.716;23.256;2023-04-25T08:59:12;7.20;;;4.40;;
5549;SDS011;2798;42.716;23.256;2023-04-25T09:01:38;6.60;;;4.00;;
5549;SDS011;2798;42.716;23.256;2023-04-25T09:04:03;5.27;;;4.20;;
5549;SDS011;2798;42.716;23.256;2023-04-25T09:06:29;5.07;;;4.20;;
5549;SDS011;2798;42.716;23.256;2023-04-25T09:09:00;5.53;;;3.90;;
5549;SDS011;2798;42.716;23.256;2023-04-25T09:11:26;4.93;;;3.60;;
5549;SDS011;2798;42.716;23.256;2023-04-25T09:13:51;5.03;;;3.47;;
5549;SDS011;2798;42.716;23.256;2023-04-25T09:16:34;4.60;;;3.80;;
5549;SDS011;2798;42.716;23.256;2023-04-25T09:19:00;4.20;;;3.80;;
5549;SDS011;2798;42.716;23.256;2023-04-25T09:21:25;4.60;;;3.83;;
5549;SDS011;2798;42.716;23.256;2023-04-25T09:23:50;4.50;;;3.40;;
5549;SDS011;2798;42.716;23.256;2023-04-25T09:26:17;3.70;;;3.30;;
5549;SDS011;2798;42.716;23.256;2023-04-25T09:28:42;8.47;;;3.10;;
5549;SDS011;2798;42.716;23.256;2023-04-25T09:31:09;3.80;;;3.20;;
5549;SDS011;2798;42.716;23.256;2023-04-25T09:33:35;3.03;;;2.60;;
5549;SDS011;2798;42.716;23.256;2023-04-25T09:36:01;2.70;;;2.50;;
5549;SDS011;2798;42.716;23.256;2023-04-25T09:38:27;4.70;;;2.73;;
5549;SDS011;2798;42.716;23.256;2023-04-25T09:40:54;3.70;;;2.73;;
5549;SDS011;2798;42.716;23.256;2023-04-25T09:43:21;4.97;;;2.57;;
5549;SDS011;2798;42.716;23.256;2023-04-25T09:45:46;5.63;;;2.83;;
5549;SDS011;2798;42.716;23.256;2023-04-25T09:48:16;7.20;;;2.53;;
5549;SDS011;2798;42.716;23.256;2023-04-25T09:50:42;2.33;;;2.03;;
5549;SDS011;2798;42.716;23.256;2023-04-25T09:53:07;1.70;;;1.60;;
5549;SDS011;2798;42.716;23.256;2023-04-25T09:55:33;2.90;;;2.20;;
5549;SDS011;2798;42.716;23.256;2023-04-25T09:58:00;3.23;;;2.20;;
5549;SDS011;2798;42.716;23.256;2023-04-25T10:00:28;5.47;;;2.07;;
5549;SDS011;2798;42.716;23.256;2023-04-25T10:02:53;2.20;;;2.00;;
5549;SDS011;2798;42.716;23.256;2023-04-25T10:05:19;2.00;;;1.60;;
5549;SDS011;2798;42.716;23.256;2023-04-25T10:07:45;4.03;;;2.00;;
5549;SDS011;2798;42.716;23.256;2023-04-25T10:10:10;3.70;;;1.60;;
5549;SDS011;2798;42.716;23.256;2023-04-25T10:12:37;2.63;;;1.57;;
5549;SDS011;2798;42.716;23.256;2023-04-25T10:15:04;4.13;;;1.80;;
5549;SDS011;2798;42.716;23.256;2023-04-25T10:17:30;1.50;;;1.40;;
5549;SDS011;2798;42.716;23.256;2023-04-25T10:19:56;4.27;;;2.23;;
5549;SDS011;2798;42.716;23.256;2023-04-25T10:24:50;5.00;;;2.20;;
5549;SDS011;2798;42.716;23.256;2023-04-25T10:27:15;2.03;;;1.63;;
5549;SDS011;2798;42.716;23.256;2023-04-25T10:29:41;4.40;;;1.60;;
5549;SDS011;2798;42.716;23.256;2023-04-25T10:32:09;2.80;;;1.10;;
5549;SDS011;2798;42.716;23.256;2023-04-25T10:34:41;3.17;;;1.27;;
5549;SDS011;2798;42.716;23.256;2023-04-25T10:37:10;0.97;;;0.97;;
5549;SDS011;2798;42.716;23.256;2023-04-25T10:39:37;1.10;;;1.00;;
5549;SDS011;2798;42.716;23.256;2023-04-25T10:42:02;1.97;;;1.20;;
5549;SDS011;2798;42.716;23.256;2023-04-25T10:44:28;2.53;;;1.30;;
5549;SDS011;2798;42.716;23.256;2023-04-25T10:46:54;2.83;;;1.10;;
5549;SDS011;2798;42.716;23.256;2023-04-25T10:49:33;4.00;;;1.20;;
5549;SDS011;2798;42.716;23.256;2023-04-25T10:52:32;1.00;;;0.80;;
5549;SDS011;2798;42.716;23.256;2023-04-25T10:59:59;2.97;;;1.27;;
5549;SDS011;2798;42.716;23.256;2023-04-25T11:02:27;1.00;;;0.90;;
5549;SDS011;2798;42.716;23.256;2023-04-25T11:04:54;1.63;;;1.10;;
5549;SDS011;2798;42.716;23.256;2023-04-25T11:09:45;0.83;;;0.70;;
5549;SDS011;2798;42.716;23.256;2023-04-25T11:12:10;0.77;;;0.77;;
5549;SDS011;2798;42.716;23.256;2023-04-25T11:14:36;0.80;;;0.77;;
5549;SDS011;2798;42.716;23.256;2023-04-25T11:17:02;0.80;;;0.80;;
5549;SDS011;2798;42.716;23.256;2023-04-25T11:19:27;1.77;;;0.90;;
5549;SDS011;2798;42.716;23.256;2023-04-25T11:21:56;1.93;;;0.90;;
5549;SDS011;2798;42.716;23.256;2023-04-25T11:24:32;1.93;;;0.90;;
5549;SDS011;2798;42.716;23.256;2023-04-25T11:26:58;1.27;;;0.90;;
5549;SDS011;2798;42.716;23.256;2023-04-25T11:29:23;0.90;;;0.90;;
5549;SDS011;2798;42.716;23.256;2023-04-25T11:31:51;2.40;;;0.90;;
5549;SDS011;2798;42.716;23.256;2023-04-25T11:34:17;3.53;;;1.10;;
5549;SDS011;2798;42.716;23.256;2023-04-25T11:36:43;1.20;;;1.10;;
5549;SDS011;2798;42.716;23.256;2023-04-25T11:39:09;1.30;;;1.20;;
5549;SDS011;2798;42.716;23.256;2023-04-25T11:41:35;1.20;;;1.10;;
5549;SDS011;2798;42.716;23.256;2023-04-25T11:44:02;1.17;;;1.07;;
5549;SDS011;2798;42.716;23.256;2023-04-25T11:46:27;1.33;;;1.17;;
5549;SDS011;2798;42.716;23.256;2023-04-25T11:48:52;1.17;;;1.07;;
5549;SDS011;2798;42.716;23.256;2023-04-25T11:51:20;1.00;;;1.00;;
5549;SDS011;2798;42.716;23.256;2023-04-25T11:53:46;0.80;;;0.80;;
5549;SDS011;2798;42.716;23.256;2023-04-25T11:56:11;1.00;;;1.00;;
5549;SDS011;2798;42.716;23.256;2023-04-25T12:01:30;0.90;;;0.90;;
5549;SDS011;2798;42.716;23.256;2023-04-25T12:03:56;1.83;;;0.80;;
5549;SDS011;2798;42.716;23.256;2023-04-25T12:06:25;1.67;;;1.20;;
5549;SDS011;2798;42.716;23.256;2023-04-25T12:09:01;1.20;;;1.10;;
5549;SDS011;2798;42.716;23.256;2023-04-25T12:11:28;0.80;;;0.80;;
5549;SDS011;2798;42.716;23.256;2023-04-25T12:13:54;0.90;;;0.90;;
5549;SDS011;2798;42.716;23.256;2023-04-25T12:16:19;2.87;;;1.00;;
5549;SDS011;2798;42.716;23.256;2023-04-25T12:18:45;1.10;;;1.00;;
5549;SDS011;2798;42.716;23.256;2023-04-25T12:21:10;0.83;;;0.83;;
5549;SDS011;2798;42.716;23.256;2023-04-25T12:23:38;1.43;;;1.00;;
5549;SDS011;2798;42.716;23.256;2023-04-25T12:26:03;1.10;;;1.00;;
5549;SDS011;2798;42.716;23.256;2023-04-25T12:28:28;3.63;;;0.83;;
5549;SDS011;2798;42.716;23.256;2023-04-25T12:33:23;1.67;;;0.90;;
5549;SDS011;2798;42.716;23.256;2023-04-25T12:35:48;1.77;;;0.90;;
5549;SDS011;2798;42.716;23.256;2023-04-25T12:41:08;0.80;;;0.80;;
5549;SDS011;2798;42.716;23.256;2023-04-25T12:43:33;1.17;;;1.07;;
5549;SDS011;2798;42.716;23.256;2023-04-25T12:45:59;2.13;;;0.90;;
5549;SDS011;2798;42.716;23.256;2023-04-25T12:48:24;1.10;;;1.00;;
5549;SDS011;2798;42.716;23.256;2023-04-25T12:50:50;1.13;;;0.90;;
5549;SDS011;2798;42.716;23.256;2023-04-25T12:53:16;1.43;;;1.03;;
5549;SDS011;2798;42.716;23.256;2023-04-25T12:55:42;3.83;;;1.30;;
5549;SDS011;2798;42.716;23.256;2023-04-25T12:58:07;1.53;;;1.30;;
5549;SDS011;2798;42.716;23.256;2023-04-25T13:00:32;1.20;;;1.10;;
5549;SDS011;2798;42.716;23.256;2023-04-25T13:02:58;2.03;;;1.37;;
5549;SDS011;2798;42.716;23.256;2023-04-25T13:05:24;1.43;;;0.90;;
5549;SDS011;2798;42.716;23.256;2023-04-25T13:07:49;2.73;;;1.37;;
5549;SDS011;2798;42.716;23.256;2023-04-25T13:10:14;2.73;;;1.30;;
5549;SDS011;2798;42.716;23.256;2023-04-25T13:12:40;1.57;;;1.20;;
5549;SDS011;2798;42.716;23.256;2023-04-25T13:15:05;1.30;;;1.20;;
5549;SDS011;2798;42.716;23.256;2023-04-25T13:17:32;2.07;;;1.33;;
5549;SDS011;2798;42.716;23.256;2023-04-25T13:19:57;1.40;;;1.30;;
5549;SDS011;2798;42.716;23.256;2023-04-25T13:22:22;1.87;;;1.40;;
5549;SDS011;2798;42.716;23.256;2023-04-25T13:24:47;1.33;;;1.23;;
5549;SDS011;2798;42.716;23.256;2023-04-25T13:27:13;1.90;;;1.50;;
5549;SDS011;2798;42.716;23.256;2023-04-25T13:29:38;3.10;;;1.30;;
5549;SDS011;2798;42.716;23.256;2023-04-25T13:32:05;2.57;;;1.40;;
5549;SDS011;2798;42.716;23.256;2023-04-25T13:34:30;1.53;;;1.37;;
5549;SDS011;2798;42.716;23.256;2023-04-25T13:36:56;1.80;;;1.40;;
5549;SDS011;2798;42.716;23.256;2023-04-25T13:39:21;2.07;;;1.60;;
5549;SDS011;2798;42.716;23.256;2023-04-25T13:41:46;4.50;;;1.60;;
5549;SDS011;2798;42.716;23.256;2023-04-25T13:44:12;3.10;;;1.40;;
5549;SDS011;2798;42.716;23.256;2023-04-25T13:46:37;2.03;;;1.70;;
5549;SDS011;2798;42.716;23.256;2023-04-25T13:49:03;2.43;;;1.60;;
5549;SDS011;2798;42.716;23.256;2023-04-25T13:51:28;4.90;;;2.60;;
5549;SDS011;2798;42.716;23.256;2023-04-25T13:53:53;10.37;;;3.77;;
5549;SDS011;2798;42.716;23.256;2023-04-25T13:56:18;3.83;;;2.30;;
5549;SDS011;2798;42.716;23.256;2023-04-25T13:58:45;3.20;;;2.43;;
5549;SDS011;2798;42.716;23.256;2023-04-25T14:01:10;2.27;;;2.00;;
5549;SDS011;2798;42.716;23.256;2023-04-25T14:03:35;2.40;;;2.07;;
5549;SDS011;2798;42.716;23.256;2023-04-25T14:06:01;2.53;;;2.00;;
5549;SDS011;2798;42.716;23.256;2023-04-25T14:08:26;2.87;;;1.77;;
5549;SDS011;2798;42.716;23.256;2023-04-25T14:10:51;2.00;;;1.80;;
5549;SDS011;2798;42.716;23.256;2023-04-25T14:13:16;2.60;;;1.70;;
5549;SDS011;2798;42.716;23.256;2023-04-25T14:15:42;1.67;;;1.40;;
5549;SDS011;2798;42.716;23.256;2023-04-25T14:18:07;2.23;;;1.50;;
5549;SDS011;2798;42.716;23.256;2023-04-25T14:20:32;1.57;;;1.47;;
5549;SDS011;2798;42.716;23.256;2023-04-25T14:22:57;1.73;;;1.60;;
5549;SDS011;2798;42.716;23.256;2023-04-25T14:25:23;1.50;;;1.40;;
5549;SDS011;2798;42.716;23.256;2023-04-25T14:27:48;1.87;;;1.53;;
5549;SDS011;2798;42.716;23.256;2023-04-25T14:30:17;1.70;;;1.13;;
5549;SDS011;2798;42.716;23.256;2023-04-25T14:32:43;1.63;;;1.13;;
5549;SDS011;2798;42.716;23.256;2023-04-25T14:35:08;1.37;;;1.27;;
5549;SDS011;2798;42.716;23.256;2023-04-25T14:37:34;1.80;;;1.30;;
5549;SDS011;2798;42.716;23.256;2023-04-25T14:39:59;2.30;;;1.20;;
5549;SDS011;2798;42.716;23.256;2023-04-25T14:42:24;0.97;;;0.97;;
5549;SDS011;2798;42.716;23.256;2023-04-25T14:44:50;1.80;;;1.40;;
5549;SDS011;2798;42.716;23.256;2023-04-25T14:47:16;3.30;;;1.00;;
5549;SDS011;2798;42.716;23.256;2023-04-25T14:49:41;1.30;;;1.20;;
5549;SDS011;2798;42.716;23.256;2023-04-25T14:52:06;2.17;;;1.20;;
5549;SDS011;2798;42.716;23.256;2023-04-25T14:54:32;1.47;;;1.37;;
5549;SDS011;2798;42.716;23.256;2023-04-25T14:56:57;1.97;;;1.23;;
5549;SDS011;2798;42.716;23.256;2023-04-25T14:59:23;2.33;;;1.47;;
5549;SDS011;2798;42.716;23.256;2023-04-25T15:01:49;1.80;;;1.40;;
5549;SDS011;2798;42.716;23.256;2023-04-25T15:04:14;1.87;;;1.50;;
5549;SDS011;2798;42.716;23.256;2023-04-25T15:06:42;1.37;;;1.20;;
5549;SDS011;2798;42.716;23.256;2023-04-25T15:09:07;1.60;;;1.23;;